createdAt,value
2023-08-14T00:02:23.446Z,6.60
2023-08-14T00:04:56.832Z,9.48
2023-08-14T00:07:30.132Z,10.15
2023-08-14T00:10:03.443Z,10.10
2023-08-14T00:12:38.007Z,7.53
2023-08-14T00:15:11.677Z,7.32
2023-08-14T00:20:18.539Z,9.00
2023-08-14T00:22:51.881Z,9.95
2023-08-14T00:25:25.441Z,7.40
2023-08-14T00:28:00.165Z,11.20
2023-08-14T00:30:33.965Z,6.97
2023-08-14T00:33:07.429Z,9.35
2023-08-14T00:35:40.803Z,8.05
2023-08-14T00:38:14.078Z,8.85
2023-08-14T00:40:47.360Z,7.65
2023-08-14T00:43:23.661Z,6.18
2023-08-14T00:45:57.909Z,9.13
2023-08-14T00:48:31.822Z,10.02
2023-08-14T00:51:05.400Z,7.88
2023-08-14T00:53:38.763Z,7.85
2023-08-14T00:56:13.123Z,6.10
2023-08-14T00:58:48.254Z,6.35
2023-08-14T01:01:21.542Z,7.78
2023-08-14T01:03:55.845Z,5.93
2023-08-14T01:06:29.120Z,7.88
2023-08-14T01:09:02.511Z,5.85
2023-08-14T01:11:44.526Z,11.68
2023-08-14T01:14:25.560Z,6.53
2023-08-14T01:17:02.782Z,5.85
2023-08-14T01:19:41.760Z,5.80
2023-08-14T01:22:19.329Z,6.03
2023-08-14T01:24:56.959Z,5.90
2023-08-14T01:27:32.407Z,6.65
2023-08-14T01:30:06.537Z,9.20
2023-08-14T01:32:40.177Z,6.72
2023-08-14T01:35:13.481Z,6.78
2023-08-14T01:37:53.640Z,8.82
2023-08-14T01:40:36.540Z,6.35
2023-08-14T01:43:16.953Z,7.32
2023-08-14T01:45:50.462Z,7.00
2023-08-14T01:50:58.417Z,4.40
2023-08-14T01:53:34.638Z,5.25
2023-08-14T01:56:08.016Z,5.90
2023-08-14T01:58:43.058Z,5.95
2023-08-14T02:01:16.495Z,5.63
2023-08-14T02:03:49.921Z,6.22
2023-08-14T02:06:23.207Z,5.32
2023-08-14T02:08:56.523Z,6.30
2023-08-14T02:11:29.877Z,8.02
2023-08-14T02:14:04.761Z,5.28
2023-08-14T02:16:38.080Z,6.32
2023-08-14T02:19:11.951Z,5.47
2023-08-14T02:21:45.227Z,5.32
2023-08-14T02:24:18.868Z,9.65
2023-08-14T02:26:52.106Z,5.20
2023-08-14T02:29:26.704Z,10.32
2023-08-14T02:31:59.968Z,4.95
2023-08-14T02:34:34.961Z,5.32
2023-08-14T02:37:08.403Z,5.80
2023-08-14T02:39:41.838Z,5.38
2023-08-14T02:42:19.192Z,5.80
2023-08-14T02:44:55.037Z,7.57
2023-08-14T02:47:30.815Z,5.45
2023-08-14T02:50:04.241Z,5.53
2023-08-14T02:55:11.171Z,7.05
2023-08-14T02:57:44.467Z,4.70
2023-08-14T03:00:21.459Z,5.00
2023-08-14T03:02:54.805Z,5.25
2023-08-14T03:05:28.166Z,5.10
2023-08-14T03:08:01.413Z,6.22
2023-08-14T03:10:34.842Z,4.72
2023-08-14T03:13:08.090Z,5.15
2023-08-14T03:15:42.752Z,5.28
2023-08-14T03:18:16.234Z,6.43
2023-08-14T03:20:49.602Z,5.43
2023-08-14T03:23:22.970Z,4.50
2023-08-14T03:25:56.223Z,5.18
2023-08-14T03:28:29.624Z,4.90
2023-08-14T03:31:04.305Z,4.63
2023-08-14T03:33:39.195Z,5.18
2023-08-14T03:36:15.222Z,5.10
2023-08-14T03:38:48.734Z,8.70
2023-08-14T03:41:22.129Z,5.78
2023-08-14T03:43:55.474Z,5.93
2023-08-14T03:46:31.434Z,4.97
2023-08-14T03:49:05.382Z,5.35
2023-08-14T03:51:38.738Z,4.53
2023-08-14T03:54:12.823Z,5.20
2023-08-14T03:56:46.204Z,5.75
2023-08-14T03:59:19.537Z,5.47
2023-08-14T04:01:54.265Z,5.00
2023-08-14T04:04:27.567Z,4.53
2023-08-14T04:07:00.950Z,4.95
2023-08-14T04:09:34.370Z,4.90
2023-08-14T04:12:08.797Z,4.47
2023-08-14T04:14:42.075Z,4.65
2023-08-14T04:17:16.675Z,4.88
2023-08-14T04:19:50.007Z,5.25
2023-08-14T04:22:23.323Z,4.60
2023-08-14T04:24:56.644Z,4.65
2023-08-14T04:27:30.002Z,4.50
2023-08-14T04:30:03.565Z,3.70
2023-08-14T04:32:39.176Z,6.38
2023-08-14T04:35:12.656Z,3.80
2023-08-14T04:37:46.603Z,4.40
2023-08-14T04:40:20.188Z,4.60
2023-08-14T04:42:53.536Z,4.32
2023-08-14T04:45:26.912Z,4.90
2023-08-14T04:48:01.738Z,4.38
2023-08-14T04:50:35.064Z,5.10
2023-08-14T04:53:08.351Z,4.70
2023-08-14T04:55:43.865Z,4.53
2023-08-14T04:58:18.619Z,4.25
2023-08-14T05:00:53.092Z,5.28
2023-08-14T05:03:28.041Z,4.15
2023-08-14T05:06:01.361Z,4.47
2023-08-14T05:08:35.278Z,4.35
2023-08-14T05:11:09.000Z,4.50
2023-08-14T05:13:45.693Z,3.72
2023-08-14T05:16:23.268Z,4.65
2023-08-14T05:18:58.409Z,3.90
2023-08-14T05:21:31.787Z,3.88
2023-08-14T05:24:05.423Z,3.95
2023-08-14T05:26:38.704Z,4.22
2023-08-14T05:29:12.013Z,4.25
2023-08-14T05:31:45.363Z,5.47
2023-08-14T05:34:20.108Z,3.72
2023-08-14T05:36:53.439Z,4.90
2023-08-14T05:39:28.085Z,4.32
2023-08-14T05:42:01.468Z,4.35
2023-08-14T05:44:34.740Z,4.60
2023-08-14T05:47:08.097Z,5.07
2023-08-14T05:49:42.695Z,7.20
2023-08-14T05:52:16.342Z,3.50
2023-08-14T05:54:49.896Z,4.50
2023-08-14T05:57:23.174Z,5.10
2023-08-14T05:59:56.446Z,4.13
2023-08-14T06:02:29.783Z,4.20
2023-08-14T06:05:04.637Z,3.70
2023-08-14T06:07:38.321Z,4.72
2023-08-14T06:10:12.157Z,5.20
2023-08-14T06:15:20.105Z,4.05
2023-08-14T06:17:53.924Z,4.10
2023-08-14T06:23:01.782Z,4.57
2023-08-14T06:25:35.048Z,4.28
2023-08-14T06:28:08.356Z,4.22
2023-08-14T06:30:42.020Z,4.13
2023-08-14T06:35:50.376Z,5.87
2023-08-14T06:38:23.671Z,6.38
2023-08-14T06:40:56.943Z,4.25
2023-08-14T06:43:30.210Z,5.10
2023-08-14T06:46:03.555Z,5.68
2023-08-14T06:48:36.880Z,5.35
2023-08-14T06:51:11.565Z,4.10
2023-08-14T06:53:45.314Z,3.90
2023-08-14T06:58:51.759Z,12.63
2023-08-14T07:01:25.516Z,6.63
2023-08-14T07:06:33.533Z,6.00
2023-08-14T07:09:07.136Z,10.45
2023-08-14T07:11:41.050Z,4.60
2023-08-14T07:16:48.228Z,6.30
2023-08-14T07:19:21.480Z,7.53
2023-08-14T07:21:56.065Z,13.20
2023-08-14T07:24:29.414Z,12.23
2023-08-14T07:27:02.706Z,30.00
2023-08-14T07:29:36.532Z,334.80
2023-08-14T07:32:10.057Z,423.55
2023-08-14T07:34:43.362Z,496.38
2023-08-14T07:37:18.015Z,496.17
2023-08-14T07:39:51.249Z,299.58
2023-08-14T07:42:24.576Z,223.35
2023-08-14T07:44:57.848Z,229.75
2023-08-14T07:47:31.295Z,224.70
2023-08-14T07:50:04.814Z,208.30
2023-08-14T07:52:40.787Z,134.55
2023-08-14T07:55:14.047Z,65.28
2023-08-14T07:57:47.355Z,37.65
2023-08-14T08:00:20.982Z,31.98
2023-08-14T08:02:54.263Z,37.05
2023-08-14T08:05:27.636Z,33.75
2023-08-14T08:08:03.426Z,35.28
2023-08-14T08:10:36.881Z,37.28
2023-08-14T08:13:10.187Z,28.02
2023-08-14T08:15:43.532Z,37.72
2023-08-14T08:18:16.922Z,34.78
2023-08-14T08:20:50.240Z,31.75
2023-08-14T08:23:24.968Z,34.50
2023-08-14T08:25:58.252Z,27.40
2023-08-14T08:28:31.542Z,28.50
2023-08-14T08:31:04.990Z,32.35
2023-08-14T08:33:38.280Z,22.17
2023-08-14T08:36:11.855Z,25.45
2023-08-14T08:38:46.681Z,24.15
2023-08-14T08:41:23.438Z,23.67
2023-08-14T08:44:02.360Z,25.40
2023-08-14T08:46:38.310Z,20.75
2023-08-14T08:49:12.876Z,27.90
2023-08-14T08:51:48.895Z,18.65
2023-08-14T08:54:24.070Z,22.52
2023-08-14T08:56:58.548Z,18.33
2023-08-14T08:59:34.071Z,18.05
2023-08-14T09:02:07.535Z,19.77
2023-08-14T09:04:40.935Z,18.27
2023-08-14T09:07:14.488Z,22.50
2023-08-14T09:09:50.264Z,18.60
2023-08-14T09:12:23.574Z,24.95
2023-08-14T09:15:08.420Z,23.60
2023-08-14T09:17:41.785Z,19.02
2023-08-14T09:20:24.393Z,23.50
2023-08-14T09:23:02.620Z,20.85
2023-08-14T09:25:37.355Z,23.55
2023-08-14T09:28:11.156Z,20.58
2023-08-14T09:33:17.680Z,18.33
2023-08-14T09:35:55.890Z,33.63
2023-08-14T09:38:29.526Z,22.90
2023-08-14T09:41:04.868Z,15.52
2023-08-14T09:43:38.860Z,17.92
2023-08-14T09:46:13.324Z,15.73
2023-08-14T09:48:48.573Z,14.23
2023-08-14T09:51:21.936Z,19.90
2023-08-14T09:53:57.591Z,15.13
2023-08-14T09:56:33.274Z,16.23
2023-08-14T09:59:08.060Z,12.07
2023-08-14T10:01:41.843Z,16.15
2023-08-14T10:06:49.004Z,15.55
2023-08-14T10:12:06.669Z,14.07
2023-08-14T10:14:42.087Z,14.60
2023-08-14T10:17:21.299Z,11.98
2023-08-14T10:19:55.761Z,14.57
2023-08-14T10:22:30.343Z,12.65
2023-08-14T10:25:05.520Z,12.43
2023-08-14T10:27:41.240Z,9.23
2023-08-14T10:30:15.608Z,11.45
2023-08-14T10:32:50.028Z,13.90
2023-08-14T10:35:24.762Z,9.20
2023-08-14T10:38:08.810Z,16.20
2023-08-14T10:40:54.895Z,10.52
2023-08-14T10:43:32.429Z,12.07
2023-08-14T10:46:10.916Z,8.23
2023-08-14T10:48:46.158Z,12.82
2023-08-14T10:51:23.265Z,10.02
2023-08-14T10:54:04.986Z,8.88
2023-08-14T10:56:43.241Z,7.50
2023-08-14T10:59:25.931Z,9.70
2023-08-14T11:02:07.227Z,16.70
2023-08-14T11:04:58.445Z,9.15
2023-08-14T11:07:32.942Z,10.43
2023-08-14T11:10:07.610Z,10.65
2023-08-14T11:12:41.035Z,11.88
2023-08-14T11:15:16.008Z,10.32
2023-08-14T11:17:49.758Z,14.65
2023-08-14T11:22:56.781Z,15.32
2023-08-14T11:25:30.266Z,19.55
2023-08-14T11:28:03.910Z,14.85
2023-08-14T11:30:38.849Z,12.18
2023-08-14T11:33:12.188Z,14.25
2023-08-14T11:35:46.915Z,20.00
2023-08-14T11:38:21.066Z,15.20
2023-08-14T11:43:27.781Z,14.48
2023-08-14T11:46:02.610Z,10.95
2023-08-14T11:48:35.912Z,23.17
2023-08-14T11:51:09.752Z,16.85
2023-08-14T11:53:44.692Z,13.20
2023-08-14T11:56:19.976Z,20.42
2023-08-14T11:59:03.334Z,9.38
2023-08-14T12:01:42.437Z,18.63
2023-08-14T12:04:15.969Z,11.07
2023-08-14T12:06:49.308Z,10.57
2023-08-14T12:09:27.762Z,12.93
2023-08-14T12:12:01.135Z,11.73
2023-08-14T12:14:41.300Z,20.42
2023-08-14T12:17:20.817Z,12.48
2023-08-14T12:19:58.626Z,12.13
2023-08-14T12:22:32.664Z,10.70
2023-08-14T12:25:10.243Z,10.18
2023-08-14T12:27:43.577Z,14.25
2023-08-14T12:30:16.864Z,13.52
2023-08-14T12:32:51.575Z,10.63
2023-08-14T12:35:24.903Z,9.88
2023-08-14T12:37:59.754Z,11.57
2023-08-14T12:40:33.320Z,10.27
2023-08-14T12:43:06.931Z,11.23
2023-08-14T12:48:15.546Z,10.20
2023-08-14T12:50:48.854Z,8.60
2023-08-14T12:53:22.065Z,12.23
2023-08-14T12:58:35.593Z,10.68
2023-08-14T13:01:08.945Z,10.48
2023-08-14T13:03:43.845Z,8.30
2023-08-14T13:06:19.080Z,7.30
2023-08-14T13:08:53.592Z,9.55
2023-08-14T13:11:27.344Z,9.82
2023-08-14T13:14:01.104Z,13.27
2023-08-14T13:19:09.024Z,11.13
2023-08-14T13:21:42.307Z,12.05
2023-08-14T13:24:15.651Z,12.48
2023-08-14T13:26:48.922Z,10.43
2023-08-14T13:29:22.479Z,14.02
2023-08-14T13:31:55.750Z,12.77
2023-08-14T13:34:30.699Z,21.10
2023-08-14T13:37:04.122Z,11.65
2023-08-14T13:39:37.439Z,7.13
2023-08-14T13:42:10.829Z,16.05
2023-08-14T13:44:44.872Z,14.50
2023-08-14T13:47:18.749Z,8.48
2023-08-14T13:49:53.485Z,7.15
2023-08-14T13:52:29.666Z,12.40
2023-08-14T13:55:03.383Z,9.07
2023-08-14T14:00:12.867Z,12.15
2023-08-14T14:02:46.235Z,13.27
2023-08-14T14:05:21.026Z,10.90
2023-08-14T14:07:56.392Z,8.00
2023-08-14T14:10:30.924Z,11.43
2023-08-14T14:13:05.508Z,9.52
2023-08-14T14:15:41.546Z,6.43
2023-08-14T14:18:16.422Z,8.95
2023-08-14T14:20:51.205Z,9.48
2023-08-14T14:23:24.527Z,10.15
2023-08-14T14:25:57.867Z,6.10
2023-08-14T14:28:31.186Z,6.63
2023-08-14T14:31:04.408Z,9.93
2023-08-14T14:33:37.771Z,9.63
2023-08-14T14:36:12.380Z,13.15
2023-08-14T14:38:45.664Z,10.57
2023-08-14T14:41:19.062Z,6.40
2023-08-14T14:43:52.305Z,10.45
2023-08-14T14:46:25.703Z,7.40
2023-08-14T14:48:59.108Z,14.20
2023-08-14T14:51:35.019Z,11.27
2023-08-14T14:54:08.752Z,10.77
2023-08-14T14:59:15.249Z,6.10
2023-08-14T15:01:48.587Z,7.90
2023-08-14T15:04:21.934Z,7.93
2023-08-14T15:06:56.663Z,6.22
2023-08-14T15:09:29.904Z,9.05
2023-08-14T15:12:03.190Z,6.80
2023-08-14T15:14:36.504Z,6.82
2023-08-14T15:17:09.824Z,11.88
2023-08-14T15:19:44.317Z,11.60
2023-08-14T15:22:19.050Z,8.43
2023-08-14T15:24:52.318Z,9.80
2023-08-14T15:27:25.542Z,20.10
2023-08-14T15:29:58.828Z,8.23
2023-08-14T15:32:32.348Z,5.38
2023-08-14T15:35:06.213Z,10.32
2023-08-14T15:37:40.850Z,9.13
2023-08-14T15:40:15.004Z,4.85
2023-08-14T15:42:48.436Z,5.53
2023-08-14T15:45:22.172Z,7.28
2023-08-14T15:50:29.002Z,7.80
2023-08-14T15:53:03.774Z,7.40
2023-08-14T15:55:37.031Z,8.60
2023-08-14T15:58:10.268Z,10.52
2023-08-14T16:00:45.170Z,11.10
2023-08-14T16:03:18.611Z,6.57
2023-08-14T16:05:56.252Z,6.53
2023-08-14T16:08:30.960Z,5.40
2023-08-14T16:11:04.231Z,6.82
2023-08-14T16:13:37.610Z,11.27
2023-08-14T16:16:10.938Z,6.05
2023-08-14T16:18:44.304Z,10.93
2023-08-14T16:21:17.524Z,10.73
2023-08-14T16:23:52.154Z,12.60
2023-08-14T16:26:25.781Z,9.68
2023-08-14T16:28:59.113Z,10.50
2023-08-14T16:31:32.603Z,10.82
2023-08-14T16:34:06.020Z,10.27
2023-08-14T16:36:39.380Z,16.33
2023-08-14T16:39:16.148Z,13.02
2023-08-14T16:41:50.973Z,17.20
2023-08-14T16:44:24.214Z,10.48
2023-08-14T16:46:57.490Z,15.40
2023-08-14T16:49:30.790Z,7.15
2023-08-14T16:52:04.234Z,23.13
2023-08-14T16:54:38.892Z,10.02
2023-08-14T16:57:12.306Z,8.98
2023-08-14T16:59:45.554Z,12.27
2023-08-14T17:02:18.975Z,12.27
2023-08-14T17:04:52.326Z,17.38
2023-08-14T17:07:28.501Z,10.48
2023-08-14T17:10:03.184Z,26.13
2023-08-14T17:12:36.471Z,13.95
2023-08-14T17:15:12.947Z,10.65
2023-08-14T17:17:46.298Z,8.40
2023-08-14T17:20:20.052Z,9.65
2023-08-14T17:25:27.755Z,12.35
2023-08-14T17:28:01.096Z,7.15
2023-08-14T17:30:37.508Z,9.65
2023-08-14T17:33:10.919Z,11.15
2023-08-14T17:35:47.592Z,11.25
2023-08-14T17:38:21.164Z,9.88
2023-08-14T17:40:55.836Z,9.65
2023-08-14T17:43:29.146Z,9.20
2023-08-14T17:46:03.556Z,7.88
2023-08-14T17:48:36.874Z,10.27
2023-08-14T17:51:28.540Z,11.52
2023-08-14T17:54:01.926Z,13.15
2023-08-14T17:56:36.582Z,9.63
2023-08-14T17:59:10.389Z,10.43
2023-08-14T18:01:43.735Z,7.40
2023-08-14T18:04:17.070Z,6.30
2023-08-14T18:06:50.428Z,13.65
2023-08-14T18:09:23.817Z,12.23
2023-08-14T18:11:58.414Z,8.15
2023-08-14T18:14:31.680Z,6.97
2023-08-14T18:17:05.107Z,8.93
2023-08-14T18:19:39.400Z,13.05
2023-08-14T18:22:12.673Z,5.68
2023-08-14T18:27:21.219Z,10.85
2023-08-14T18:29:54.889Z,9.27
2023-08-14T18:32:28.206Z,14.60
2023-08-14T18:35:01.556Z,8.48
2023-08-14T18:37:34.915Z,9.65
2023-08-14T18:40:10.684Z,7.57
2023-08-14T18:42:45.417Z,7.43
2023-08-14T18:45:18.874Z,7.40
2023-08-14T18:47:52.149Z,8.63
2023-08-14T18:50:26.518Z,6.95
2023-08-14T18:53:00.969Z,7.43
2023-08-14T18:55:39.284Z,7.28
2023-08-14T18:58:14.968Z,11.85
2023-08-14T19:00:49.032Z,6.03
2023-08-14T19:03:22.275Z,9.35
2023-08-14T19:05:57.782Z,10.45
2023-08-14T19:08:31.025Z,8.63
2023-08-14T19:11:04.283Z,10.82
2023-08-14T19:13:39.058Z,6.20
2023-08-14T19:16:12.346Z,7.07
2023-08-14T19:18:45.858Z,7.70
2023-08-14T19:23:52.801Z,8.52
2023-08-14T19:26:28.577Z,9.95
2023-08-14T19:29:04.725Z,13.98
2023-08-14T19:31:38.324Z,10.15
2023-08-14T19:36:45.004Z,10.02
2023-08-14T19:39:18.302Z,10.15
2023-08-14T19:41:51.679Z,8.02
2023-08-14T19:44:26.433Z,7.97
2023-08-14T19:47:01.223Z,19.55
2023-08-14T19:49:34.879Z,15.32
2023-08-14T19:52:08.335Z,14.15
2023-08-14T19:54:41.650Z,9.50
2023-08-14T19:57:14.961Z,8.43
2023-08-14T19:59:49.813Z,6.85
2023-08-14T20:02:23.878Z,8.38
2023-08-14T20:04:57.284Z,13.80
2023-08-14T20:07:30.660Z,13.57
2023-08-14T20:10:04.247Z,10.57
2023-08-14T20:12:37.501Z,8.57
2023-08-14T20:15:12.620Z,12.82
2023-08-14T20:17:45.917Z,7.43
2023-08-14T20:20:20.952Z,8.93
2023-08-14T20:22:54.842Z,11.25
2023-08-14T20:25:29.432Z,9.50
2023-08-14T20:28:02.859Z,11.80
2023-08-14T20:30:42.089Z,8.10
2023-08-14T20:33:16.042Z,17.13
2023-08-14T20:35:49.470Z,7.22
2023-08-14T20:38:22.819Z,11.13
2023-08-14T20:40:56.259Z,10.32
2023-08-14T20:43:31.291Z,10.50
2023-08-14T20:46:05.920Z,10.40
2023-08-14T20:48:39.376Z,8.68
2023-08-14T20:51:12.997Z,13.25
2023-08-14T20:56:19.508Z,14.02
2023-08-14T20:58:52.760Z,13.95
2023-08-14T21:01:27.416Z,11.00
2023-08-14T21:04:00.801Z,8.52
2023-08-14T21:06:34.130Z,7.90
2023-08-14T21:09:08.267Z,9.48
2023-08-14T21:11:42.958Z,8.63
2023-08-14T21:14:16.236Z,10.48
2023-08-14T21:16:50.907Z,12.38
2023-08-14T21:19:24.314Z,8.63
2023-08-14T21:21:57.666Z,12.23
2023-08-14T21:24:31.154Z,12.55
2023-08-14T21:27:04.545Z,11.23
2023-08-14T21:29:37.842Z,11.07
2023-08-14T21:32:12.497Z,11.13
2023-08-14T21:34:47.079Z,11.82
2023-08-14T21:37:20.613Z,10.30
2023-08-14T21:42:27.420Z,11.57
2023-08-14T21:45:00.649Z,8.45
2023-08-14T21:47:35.249Z,10.82
2023-08-14T21:50:09.333Z,7.68
2023-08-14T21:52:42.639Z,9.45
2023-08-14T21:55:16.002Z,9.32
2023-08-14T21:57:49.284Z,8.00
2023-08-14T22:00:22.609Z,12.15
2023-08-14T22:02:57.287Z,8.48
2023-08-14T22:05:30.621Z,11.10
2023-08-14T22:08:04.002Z,10.98
2023-08-14T22:10:37.317Z,9.48
2023-08-14T22:13:10.525Z,10.20
2023-08-14T22:15:46.370Z,9.82
2023-08-14T22:18:21.465Z,16.77
2023-08-14T22:20:55.226Z,9.23
2023-08-14T22:26:04.837Z,9.40
2023-08-14T22:28:39.880Z,8.75
2023-08-14T22:31:15.040Z,10.45
2023-08-14T22:33:49.711Z,9.75
2023-08-14T22:36:22.981Z,8.23
2023-08-14T22:38:56.230Z,9.10
2023-08-14T22:41:29.504Z,12.90
2023-08-14T22:44:02.775Z,9.05
2023-08-14T22:46:36.064Z,14.60
2023-08-14T22:49:10.687Z,13.32
2023-08-14T22:51:43.942Z,10.68
2023-08-14T22:54:17.268Z,8.77
2023-08-14T22:56:50.507Z,10.65
2023-08-14T22:59:23.770Z,10.77
2023-08-14T23:01:56.990Z,10.38
2023-08-14T23:04:31.591Z,9.82
2023-08-14T23:07:04.972Z,9.30
2023-08-14T23:09:38.353Z,9.32
2023-08-14T23:12:11.573Z,8.60
2023-08-14T23:14:44.842Z,10.02
2023-08-14T23:17:18.366Z,12.55
2023-08-14T23:19:53.680Z,8.55
2023-08-14T23:22:27.007Z,9.75
2023-08-14T23:25:00.388Z,11.27
2023-08-14T23:27:33.662Z,8.13
2023-08-14T23:30:08.109Z,9.05
2023-08-14T23:32:41.518Z,8.38
2023-08-14T23:35:16.326Z,9.23
2023-08-14T23:37:52.130Z,8.18
2023-08-14T23:40:25.481Z,10.23
2023-08-14T23:42:59.096Z,9.27
2023-08-14T23:45:32.521Z,10.15
2023-08-14T23:48:06.836Z,9.15
2023-08-14T23:50:41.895Z,9.77
2023-08-14T23:53:15.254Z,8.93
2023-08-14T23:55:48.731Z,8.52
2023-08-14T23:58:22.161Z,8.77
